createdAt,value
2017-12-01T00:00:22.589Z,0.00
2017-12-01T00:01:22.551Z,0.00
2017-12-01T00:02:22.519Z,0.00
2017-12-01T00:03:22.492Z,0.00
2017-12-01T00:04:22.453Z,0.00
2017-12-01T00:05:22.425Z,0.00
2017-12-01T00:06:22.391Z,0.00
2017-12-01T00:07:22.358Z,0.00
2017-12-01T00:08:22.332Z,0.00
2017-12-01T00:09:22.288Z,0.00
2017-12-01T00:10:22.261Z,0.00
2017-12-01T00:11:22.231Z,0.00
2017-12-01T00:12:22.204Z,0.00
2017-12-01T00:13:22.165Z,0.00
2017-12-01T00:14:22.429Z,0.00
2017-12-01T00:15:22.108Z,0.00
2017-12-01T00:16:22.070Z,0.00
2017-12-01T00:17:22.048Z,0.00
2017-12-01T00:18:22.008Z,0.00
2017-12-01T00:19:21.972Z,0.00
2017-12-01T00:20:22.194Z,0.00
2017-12-01T00:21:21.913Z,0.00
2017-12-01T00:22:21.882Z,0.00
2017-12-01T00:23:21.861Z,0.00
2017-12-01T00:24:21.817Z,0.00
2017-12-01T00:25:21.790Z,0.00
2017-12-01T00:26:22.066Z,0.00
2017-12-01T00:27:21.722Z,0.00
2017-12-01T00:28:21.686Z,0.00
2017-12-01T00:29:21.670Z,0.00
2017-12-01T00:30:21.626Z,0.00
2017-12-01T00:31:21.595Z,0.00
2017-12-01T00:32:21.570Z,0.00
2017-12-01T00:33:21.528Z,0.00
2017-12-01T00:34:21.496Z,0.00
2017-12-01T00:35:21.472Z,0.00
2017-12-01T00:36:21.447Z,0.00
2017-12-01T00:37:21.408Z,0.00
2017-12-01T00:38:21.379Z,0.00
2017-12-01T00:39:21.341Z,0.00
2017-12-01T00:40:21.318Z,0.00
2017-12-01T00:41:21.276Z,0.00
2017-12-01T00:42:21.251Z,0.00
2017-12-01T00:43:21.215Z,0.00
2017-12-01T00:44:21.174Z,0.00
2017-12-01T00:45:21.147Z,0.00
2017-12-01T00:46:21.113Z,0.00
2017-12-01T00:47:21.079Z,0.00
2017-12-01T00:48:21.057Z,0.00
2017-12-01T00:49:21.026Z,0.00
2017-12-01T00:50:21.289Z,0.00
2017-12-01T00:51:20.968Z,0.00
2017-12-01T00:52:20.931Z,0.00
2017-12-01T00:53:20.890Z,0.00
2017-12-01T00:54:20.959Z,0.00
2017-12-01T00:55:20.825Z,0.00
2017-12-01T00:56:21.149Z,0.00
2017-12-01T00:57:20.760Z,0.00
2017-12-01T00:58:20.732Z,0.00
2017-12-01T00:59:20.701Z,0.00
2017-12-01T01:00:20.662Z,0.00
2017-12-01T01:01:20.632Z,0.00
2017-12-01T01:02:20.844Z,0.00
2017-12-01T01:03:20.568Z,0.00
2017-12-01T01:04:20.543Z,0.00
2017-12-01T01:05:20.515Z,0.00
2017-12-01T01:06:20.467Z,0.00
2017-12-01T01:07:20.439Z,0.00
2017-12-01T01:08:20.413Z,0.00
2017-12-01T01:09:20.389Z,0.00
2017-12-01T01:10:20.345Z,0.00
2017-12-01T01:11:20.310Z,0.00
2017-12-01T01:12:20.279Z,0.00
2017-12-01T01:13:20.248Z,0.00
2017-12-01T01:14:20.219Z,0.00
2017-12-01T01:15:20.186Z,0.00
2017-12-01T01:16:20.142Z,0.00
2017-12-01T01:17:20.119Z,0.00
2017-12-01T01:18:20.092Z,0.00
2017-12-01T01:19:20.051Z,0.00
2017-12-01T01:20:20.018Z,0.00
2017-12-01T01:21:19.988Z,0.00
2017-12-01T01:22:19.978Z,0.00
2017-12-01T01:23:19.917Z,0.00
2017-12-01T01:24:19.899Z,0.00
2017-12-01T01:25:19.866Z,0.00
2017-12-01T01:26:19.826Z,0.00
2017-12-01T01:27:19.793Z,0.00
2017-12-01T01:28:19.764Z,0.00
2017-12-01T01:29:19.731Z,0.00
2017-12-01T01:30:19.701Z,0.00
2017-12-01T01:31:19.672Z,0.00
2017-12-01T01:32:20.431Z,0.00
2017-12-01T01:33:19.608Z,0.00
2017-12-01T01:34:19.580Z,0.00
2017-12-01T01:35:19.539Z,0.00
2017-12-01T01:36:19.502Z,0.00
2017-12-01T01:37:19.480Z,0.00
2017-12-01T01:38:19.685Z,0.00
2017-12-01T01:39:19.409Z,0.00
2017-12-01T01:40:19.376Z,0.00
2017-12-01T01:41:19.343Z,0.00
2017-12-01T01:42:19.322Z,0.00
2017-12-01T01:43:19.295Z,0.00
2017-12-01T01:44:19.497Z,0.00
2017-12-01T01:45:19.209Z,0.00
2017-12-01T01:46:19.197Z,0.00
2017-12-01T01:47:19.155Z,0.00
2017-12-01T01:48:19.113Z,0.00
2017-12-01T01:49:19.094Z,0.00
2017-12-01T01:50:19.069Z,0.00
2017-12-01T01:51:19.024Z,0.00
2017-12-01T01:52:18.998Z,0.00
2017-12-01T01:53:18.958Z,0.00
2017-12-01T01:54:18.920Z,0.00
2017-12-01T01:55:18.898Z,0.00
2017-12-01T01:56:18.868Z,0.00
2017-12-01T01:57:18.831Z,0.00
2017-12-01T01:58:18.804Z,0.00
2017-12-01T01:59:18.769Z,0.00
2017-12-01T02:00:18.735Z,0.00
2017-12-01T02:01:18.700Z,0.00
2017-12-01T02:02:19.020Z,0.00
2017-12-01T02:03:18.646Z,0.00
2017-12-01T02:04:18.602Z,0.00
2017-12-01T02:05:18.579Z,0.00
2017-12-01T02:06:18.545Z,0.00
2017-12-01T02:07:18.503Z,0.00
2017-12-01T02:08:18.741Z,0.00
2017-12-01T02:09:18.454Z,0.00
2017-12-01T02:10:18.418Z,0.00
2017-12-01T02:11:18.418Z,0.00
2017-12-01T02:12:18.355Z,0.00
2017-12-01T02:13:18.318Z,0.00
2017-12-01T02:14:18.294Z,0.00
2017-12-01T02:15:18.253Z,0.00
2017-12-01T02:16:18.230Z,0.00
2017-12-01T02:17:18.188Z,0.00
2017-12-01T02:18:18.168Z,0.00
2017-12-01T02:19:18.126Z,0.00
2017-12-01T02:20:18.339Z,0.00
2017-12-01T02:21:18.068Z,0.00
2017-12-01T02:22:18.035Z,0.00
2017-12-01T02:23:17.992Z,0.00
2017-12-01T02:24:17.971Z,0.00
2017-12-01T02:25:17.938Z,0.00
2017-12-01T02:26:18.149Z,0.00
2017-12-01T02:27:17.869Z,0.00
2017-12-01T02:28:17.838Z,0.00
2017-12-01T02:29:17.817Z,0.00
2017-12-01T02:30:17.790Z,0.00
2017-12-01T02:31:17.747Z,0.00
2017-12-01T02:32:17.720Z,0.00
2017-12-01T02:33:17.677Z,0.00
2017-12-01T02:34:17.647Z,0.00
2017-12-01T02:35:17.629Z,0.00
2017-12-01T02:36:17.583Z,0.00
2017-12-01T02:37:17.554Z,0.00
2017-12-01T02:38:17.536Z,0.00
2017-12-01T02:39:17.495Z,0.00
2017-12-01T02:40:17.486Z,0.00
2017-12-01T02:41:17.431Z,0.00
2017-12-01T02:42:17.397Z,0.00
2017-12-01T02:43:17.365Z,0.00
2017-12-01T02:44:17.580Z,0.00
2017-12-01T02:45:17.309Z,0.00
2017-12-01T02:46:17.266Z,0.00
2017-12-01T02:47:17.248Z,0.00
2017-12-01T02:48:17.198Z,0.00
2017-12-01T02:49:17.517Z,0.00
2017-12-01T02:50:17.143Z,0.00
2017-12-01T02:51:17.117Z,0.00
2017-12-01T02:52:17.076Z,0.00
2017-12-01T02:53:17.041Z,0.00
2017-12-01T02:54:17.020Z,0.00
2017-12-01T02:55:16.979Z,0.00
2017-12-01T02:56:16.948Z,0.00
2017-12-01T02:57:16.920Z,0.00
2017-12-01T02:58:16.890Z,0.00
2017-12-01T02:59:16.851Z,0.00
2017-12-01T03:00:16.832Z,0.00
2017-12-01T03:01:17.044Z,0.00
2017-12-01T03:02:16.765Z,0.00
2017-12-01T03:03:16.726Z,0.00
2017-12-01T03:04:16.691Z,0.00
2017-12-01T03:05:16.663Z,0.00
2017-12-01T03:06:16.645Z,0.00
2017-12-01T03:07:16.613Z,0.00
2017-12-01T03:08:16.577Z,0.00
2017-12-01T03:09:16.542Z,0.00
2017-12-01T03:10:16.508Z,0.00
2017-12-01T03:11:16.469Z,0.00
2017-12-01T03:12:16.451Z,0.00
2017-12-01T03:13:16.660Z,0.00
2017-12-01T03:14:16.384Z,0.00
2017-12-01T03:15:16.354Z,0.00
2017-12-01T03:16:16.319Z,0.00
2017-12-01T03:17:16.280Z,0.00
2017-12-01T03:18:16.257Z,0.00
2017-12-01T03:19:16.523Z,0.00
2017-12-01T03:20:16.195Z,0.00
2017-12-01T03:21:16.164Z,0.00
2017-12-01T03:22:16.123Z,0.00
2017-12-01T03:23:16.088Z,0.00
2017-12-01T03:24:16.072Z,0.00
2017-12-01T03:25:16.030Z,0.00
2017-12-01T03:26:16.020Z,0.00
2017-12-01T03:27:15.977Z,0.00
2017-12-01T03:28:15.938Z,0.00
2017-12-01T03:29:15.905Z,0.00
2017-12-01T03:30:15.884Z,0.00
2017-12-01T03:31:15.843Z,0.00
2017-12-01T03:32:15.820Z,0.00
2017-12-01T03:33:15.775Z,0.00
2017-12-01T03:34:15.742Z,0.00
2017-12-01T03:35:15.724Z,0.00
2017-12-01T03:36:15.688Z,0.00
2017-12-01T03:37:15.901Z,0.00
2017-12-01T03:38:15.629Z,0.00
2017-12-01T03:39:15.587Z,0.00
2017-12-01T03:40:15.560Z,0.00
2017-12-01T03:41:15.530Z,0.00
2017-12-01T03:42:15.494Z,0.00
2017-12-01T03:43:15.466Z,0.00
2017-12-01T03:44:15.436Z,0.00
2017-12-01T03:45:15.402Z,0.00
2017-12-01T03:46:15.377Z,0.00
2017-12-01T03:47:15.342Z,0.00
2017-12-01T03:48:15.301Z,0.00
2017-12-01T03:49:15.626Z,0.00
2017-12-01T03:50:15.241Z,0.00
2017-12-01T03:51:15.217Z,0.00
2017-12-01T03:52:15.183Z,0.00
2017-12-01T03:53:15.157Z,0.00
2017-12-01T03:54:15.115Z,0.00
2017-12-01T03:55:15.381Z,0.00
2017-12-01T03:56:15.060Z,0.00
2017-12-01T03:57:15.030Z,0.00
2017-12-01T03:58:14.995Z,0.00
2017-12-01T03:59:14.967Z,0.00
2017-12-01T04:00:14.926Z,0.00
2017-12-01T04:01:14.901Z,0.00
2017-12-01T04:02:14.868Z,0.00
2017-12-01T04:03:14.850Z,0.00
2017-12-01T04:04:14.816Z,0.00
2017-12-01T04:05:14.774Z,0.00
2017-12-01T04:06:14.744Z,0.00
2017-12-01T04:07:14.708Z,0.00
2017-12-01T04:08:14.678Z,0.00
2017-12-01T04:09:14.648Z,0.00
2017-12-01T04:10:14.617Z,0.00
2017-12-01T04:11:14.590Z,0.00
2017-12-01T04:12:14.560Z,0.00
2017-12-01T04:13:14.528Z,0.00
2017-12-01T04:14:14.491Z,0.00
2017-12-01T04:15:14.466Z,0.00
2017-12-01T04:16:14.431Z,0.00
2017-12-01T04:17:14.396Z,0.00
2017-12-01T04:18:14.375Z,0.00
2017-12-01T04:19:14.586Z,0.00
2017-12-01T04:20:14.296Z,0.00
2017-12-01T04:21:14.276Z,0.00
2017-12-01T04:22:14.244Z,0.00
2017-12-01T04:23:14.205Z,0.00
2017-12-01T04:24:14.185Z,0.00
2017-12-01T04:25:14.503Z,0.00
2017-12-01T04:26:14.114Z,0.00
2017-12-01T04:27:14.098Z,0.00
2017-12-01T04:28:14.052Z,0.00
2017-12-01T04:29:14.029Z,0.00
2017-12-01T04:30:13.994Z,0.00
2017-12-01T04:31:13.966Z,0.00
2017-12-01T04:32:13.923Z,0.00
2017-12-01T04:33:13.897Z,0.00
2017-12-01T04:34:13.863Z,0.00
2017-12-01T04:35:13.846Z,0.00
2017-12-01T04:36:13.803Z,0.00
2017-12-01T04:37:14.074Z,0.00
2017-12-01T04:38:13.743Z,0.00
2017-12-01T04:39:13.712Z,0.00
2017-12-01T04:40:13.674Z,0.00
2017-12-01T04:41:13.645Z,0.00
2017-12-01T04:42:13.613Z,0.00
2017-12-01T04:43:13.578Z,0.00
2017-12-01T04:44:13.551Z,0.00
2017-12-01T04:45:13.528Z,0.00
2017-12-01T04:46:13.495Z,0.00
2017-12-01T04:47:13.457Z,0.00
2017-12-01T04:48:13.427Z,0.00
2017-12-01T04:49:13.390Z,0.00
2017-12-01T04:50:13.369Z,0.00
2017-12-01T04:51:13.339Z,0.00
2017-12-01T04:52:13.306Z,0.00
2017-12-01T04:53:13.273Z,0.00
2017-12-01T04:54:13.232Z,0.00
2017-12-01T04:55:13.556Z,0.00
2017-12-01T04:56:13.177Z,0.00
2017-12-01T04:57:13.147Z,0.00
2017-12-01T04:58:13.107Z,0.00
2017-12-01T04:59:13.076Z,0.00
2017-12-01T05:00:13.052Z,0.00
2017-12-01T05:01:13.276Z,0.00
2017-12-01T05:02:12.994Z,0.00
2017-12-01T05:03:12.975Z,0.00
2017-12-01T05:04:12.921Z,0.00
2017-12-01T05:05:12.896Z,0.00
2017-12-01T05:06:12.869Z,0.00
2017-12-01T05:07:13.133Z,0.00
2017-12-01T05:08:12.801Z,0.00
2017-12-01T05:09:12.761Z,0.00
2017-12-01T05:10:12.743Z,0.00
2017-12-01T05:11:12.705Z,0.00
2017-12-01T05:12:12.723Z,0.00
2017-12-01T05:13:12.909Z,0.00
2017-12-01T05:14:12.603Z,0.00
2017-12-01T05:15:12.575Z,0.00
2017-12-01T05:16:12.551Z,0.00
2017-12-01T05:17:12.523Z,0.00
2017-12-01T05:18:12.484Z,0.00
2017-12-01T05:19:12.701Z,0.00
2017-12-01T05:20:12.419Z,0.00
2017-12-01T05:21:12.386Z,0.00
2017-12-01T05:22:12.361Z,0.00
2017-12-01T05:23:12.329Z,0.00
2017-12-01T05:24:12.304Z,0.00
2017-12-01T05:25:12.272Z,0.00
2017-12-01T05:26:12.234Z,0.00
2017-12-01T05:27:12.208Z,0.00
2017-12-01T05:28:12.171Z,0.00
2017-12-01T05:29:12.140Z,0.00
2017-12-01T05:30:12.111Z,0.00
2017-12-01T05:31:12.374Z,0.00
2017-12-01T05:32:12.037Z,0.00
2017-12-01T05:33:12.008Z,0.00
2017-12-01T05:34:11.989Z,0.00
2017-12-01T05:35:11.953Z,0.00
2017-12-01T05:36:11.921Z,0.00
2017-12-01T05:37:11.897Z,0.00
2017-12-01T05:38:11.856Z,0.00
2017-12-01T05:39:11.830Z,0.00
2017-12-01T05:40:11.791Z,0.00
2017-12-01T05:41:11.765Z,0.00
2017-12-01T05:42:11.732Z,0.00
2017-12-01T05:43:11.950Z,0.00
2017-12-01T05:44:11.669Z,0.00
2017-12-01T05:45:11.638Z,0.00
2017-12-01T05:46:11.617Z,0.00
2017-12-01T05:47:11.582Z,0.00
2017-12-01T05:48:11.548Z,0.00
2017-12-01T05:49:11.509Z,0.00
2017-12-01T05:50:11.483Z,0.00
2017-12-01T05:51:11.446Z,0.00
2017-12-01T05:52:11.418Z,0.00
2017-12-01T05:53:11.389Z,0.00
2017-12-01T05:54:11.352Z,0.00
2017-12-01T05:55:11.329Z,0.00
2017-12-01T05:56:11.297Z,0.00
2017-12-01T05:57:11.268Z,0.00
2017-12-01T05:58:11.237Z,0.00
2017-12-01T05:59:11.204Z,0.00
2017-12-01T06:00:11.163Z,0.00
2017-12-01T06:01:11.139Z,0.00
2017-12-01T06:02:11.109Z,0.00
2017-12-01T06:03:11.087Z,0.00
2017-12-01T06:04:11.037Z,0.00
2017-12-01T06:05:11.006Z,0.00
2017-12-01T06:06:11.287Z,0.00
2017-12-01T06:07:10.955Z,0.00
2017-12-01T06:08:10.925Z,0.00
2017-12-01T06:09:10.891Z,0.00
2017-12-01T06:10:10.855Z,0.00
2017-12-01T06:11:10.820Z,0.00
2017-12-01T06:12:11.103Z,0.00
2017-12-01T06:13:10.770Z,0.00
2017-12-01T06:14:10.737Z,0.00
2017-12-01T06:15:10.709Z,0.00
2017-12-01T06:16:10.667Z,0.00
2017-12-01T06:17:10.644Z,0.00
2017-12-01T06:18:10.614Z,0.00
2017-12-01T06:19:10.583Z,0.00
2017-12-01T06:20:10.544Z,0.00
2017-12-01T06:21:10.519Z,0.00
2017-12-01T06:22:10.489Z,0.00
2017-12-01T06:23:10.447Z,0.00
2017-12-01T06:24:10.728Z,0.00
2017-12-01T06:25:10.391Z,0.00
2017-12-01T06:26:10.359Z,0.00
2017-12-01T06:27:10.327Z,0.00
2017-12-01T06:28:10.303Z,0.00
2017-12-01T06:29:10.280Z,0.00
2017-12-01T06:30:10.244Z,0.00
2017-12-01T06:31:10.215Z,0.00
2017-12-01T06:32:10.173Z,4.00
2017-12-01T06:33:10.147Z,4.00
2017-12-01T06:34:10.112Z,4.00
2017-12-01T06:35:10.081Z,0.00
2017-12-01T06:36:10.317Z,0.00
2017-12-01T06:37:10.013Z,4.00
2017-12-01T06:38:09.988Z,4.00
2017-12-01T06:39:09.953Z,4.00
2017-12-01T06:40:09.941Z,4.00
2017-12-01T06:41:09.902Z,4.00
2017-12-01T06:42:09.857Z,4.00
2017-12-01T06:43:09.830Z,8.00
2017-12-01T06:44:09.799Z,8.00
2017-12-01T06:45:09.771Z,8.00
2017-12-01T06:46:09.743Z,12.00
2017-12-01T06:47:09.707Z,12.00
2017-12-01T06:48:09.670Z,16.00
2017-12-01T06:49:09.646Z,16.00
2017-12-01T06:50:09.621Z,16.00
2017-12-01T06:51:09.586Z,20.00
2017-12-01T06:52:09.552Z,24.00
2017-12-01T06:53:09.521Z,28.00
2017-12-01T06:54:09.495Z,36.00
2017-12-01T06:55:09.460Z,40.00
2017-12-01T06:56:09.432Z,48.00
2017-12-01T06:57:09.395Z,52.00
2017-12-01T06:58:09.373Z,64.00
2017-12-01T06:59:09.335Z,72.00
2017-12-01T07:00:09.308Z,80.00
2017-12-01T07:01:09.285Z,92.00
2017-12-01T07:02:09.246Z,100.00
2017-12-01T07:03:09.208Z,108.00
2017-12-01T07:04:09.182Z,120.00
2017-12-01T07:05:09.149Z,124.00
2017-12-01T07:06:09.372Z,136.00
2017-12-01T07:07:09.125Z,144.00
2017-12-01T07:08:09.051Z,152.00
2017-12-01T07:09:09.023Z,164.00
2017-12-01T07:10:08.988Z,176.00
2017-12-01T07:11:08.953Z,188.00
2017-12-01T07:12:08.934Z,204.00
2017-12-01T07:13:08.899Z,228.00
2017-12-01T07:14:08.864Z,252.00
2017-12-01T07:15:08.839Z,280.00
2017-12-01T07:16:08.812Z,316.00
2017-12-01T07:17:08.782Z,352.00
2017-12-01T07:18:08.746Z,384.00
2017-12-01T07:19:08.717Z,420.00
2017-12-01T07:20:08.675Z,460.00
2017-12-01T07:21:08.647Z,492.00
2017-12-01T07:22:08.624Z,528.00
2017-12-01T07:23:08.591Z,556.00
2017-12-01T07:24:08.551Z,588.00
2017-12-01T07:25:08.530Z,620.00
2017-12-01T07:26:08.492Z,648.00
2017-12-01T07:27:08.465Z,676.00
2017-12-01T07:28:08.434Z,704.00
2017-12-01T07:29:08.404Z,744.00
2017-12-01T07:30:08.375Z,780.00
2017-12-01T07:31:08.343Z,824.00
2017-12-01T07:32:08.309Z,872.00
2017-12-01T07:33:08.276Z,928.00
2017-12-01T07:34:08.243Z,984.00
2017-12-01T07:35:08.561Z,1044.00
2017-12-01T07:36:08.188Z,1096.00
2017-12-01T07:37:08.153Z,1156.00
2017-12-01T07:38:08.114Z,1220.00
2017-12-01T07:39:08.079Z,1288.00
2017-12-01T07:40:08.062Z,1368.00
2017-12-01T07:41:08.283Z,1452.00
2017-12-01T07:42:08.001Z,1540.00
2017-12-01T07:43:07.973Z,1652.00
2017-12-01T07:44:07.931Z,1760.00
2017-12-01T07:45:07.900Z,1876.00
2017-12-01T07:46:07.880Z,2008.00
2017-12-01T07:47:07.838Z,2136.00
2017-12-01T07:48:07.810Z,2284.00
2017-12-01T07:49:07.783Z,2500.00
2017-12-01T07:50:07.740Z,2680.00
2017-12-01T07:51:07.716Z,2856.00
2017-12-01T07:52:07.695Z,3056.00
2017-12-01T07:53:07.649Z,3272.00
2017-12-01T07:54:07.625Z,3424.00
2017-12-01T07:55:07.583Z,3460.00
2017-12-01T07:56:07.564Z,3472.00
2017-12-01T07:57:07.526Z,3472.00
2017-12-01T07:58:07.502Z,3520.00
2017-12-01T07:59:07.464Z,3544.00
2017-12-01T08:00:07.444Z,3556.00
2017-12-01T08:01:07.409Z,3516.00
2017-12-01T08:02:07.376Z,3460.00
2017-12-01T08:03:07.349Z,3408.00
2017-12-01T08:04:07.308Z,3376.00
2017-12-01T08:05:07.525Z,3372.00
2017-12-01T08:06:07.253Z,3368.00
2017-12-01T08:07:07.215Z,3344.00
2017-12-01T08:08:07.193Z,3328.00
2017-12-01T08:09:07.167Z,3320.00
2017-12-01T08:10:07.125Z,3272.00
2017-12-01T08:11:07.092Z,3140.00
2017-12-01T08:12:07.073Z,3008.00
2017-12-01T08:13:07.050Z,2976.00
2017-12-01T08:14:07.005Z,3000.00
2017-12-01T08:15:06.979Z,3212.00
2017-12-01T08:16:06.944Z,3412.00
2017-12-01T08:17:06.919Z,3412.00
2017-12-01T08:18:06.885Z,3156.00
2017-12-01T08:19:06.856Z,2952.00
2017-12-01T08:20:06.827Z,2720.00
2017-12-01T08:21:06.794Z,2700.00
2017-12-01T08:22:06.762Z,2936.00
2017-12-01T08:23:06.730Z,3176.00
2017-12-01T08:24:06.695Z,3444.00
2017-12-01T08:25:06.667Z,3744.00
2017-12-01T08:26:06.630Z,3984.00
2017-12-01T08:27:06.605Z,4180.00
2017-12-01T08:28:06.579Z,4296.00
2017-12-01T08:29:06.552Z,4248.00
2017-12-01T08:30:06.520Z,4160.00
2017-12-01T08:31:06.489Z,4112.00
2017-12-01T08:32:06.447Z,4192.00
2017-12-01T08:33:06.423Z,4440.00
2017-12-01T08:34:06.388Z,4608.00
2017-12-01T08:35:06.360Z,4684.00
2017-12-01T08:36:06.334Z,4796.00
2017-12-01T08:37:06.299Z,4800.00
2017-12-01T08:38:06.270Z,4720.00
2017-12-01T08:39:06.233Z,4468.00
2017-12-01T08:40:06.211Z,4516.00
2017-12-01T08:41:06.186Z,4812.00
2017-12-01T08:42:06.145Z,4984.00
2017-12-01T08:43:06.118Z,5148.00
2017-12-01T08:44:06.090Z,5048.00
2017-12-01T08:45:06.053Z,5092.00
2017-12-01T08:46:06.025Z,5380.00
2017-12-01T08:47:05.987Z,4816.00
2017-12-01T08:48:05.963Z,4944.00
2017-12-01T08:49:05.943Z,5168.00
2017-12-01T08:50:05.909Z,5804.00
2017-12-01T08:51:05.872Z,6184.00
2017-12-01T08:52:05.839Z,5996.00
2017-12-01T08:53:05.799Z,5920.00
2017-12-01T08:54:05.768Z,6384.00
2017-12-01T08:55:05.747Z,6824.00
2017-12-01T08:56:05.717Z,6880.00
2017-12-01T08:57:05.693Z,6592.00
2017-12-01T08:58:05.654Z,5772.00
2017-12-01T08:59:05.616Z,5628.00
2017-12-01T09:00:05.590Z,6332.00
2017-12-01T09:01:05.561Z,6872.00
2017-12-01T09:02:05.533Z,7240.00
2017-12-01T09:03:05.503Z,7396.00
2017-12-01T09:04:05.467Z,6912.00
2017-12-01T09:05:05.448Z,6432.00
2017-12-01T09:06:05.411Z,6504.00
2017-12-01T09:07:05.376Z,7132.00
2017-12-01T09:08:05.374Z,7592.00
2017-12-01T09:09:05.309Z,7808.00
2017-12-01T09:10:05.278Z,7464.00
2017-12-01T09:11:05.247Z,6680.00
2017-12-01T09:12:05.220Z,6144.00
2017-12-01T09:13:05.198Z,6116.00
2017-12-01T09:14:05.167Z,5588.00
2017-12-01T09:15:05.123Z,4884.00
2017-12-01T09:16:05.097Z,4920.00
2017-12-01T09:17:05.068Z,5100.00
2017-12-01T09:18:05.035Z,5452.00
2017-12-01T09:19:05.009Z,5656.00
2017-12-01T09:20:04.995Z,5824.00
2017-12-01T09:21:04.957Z,5708.00
2017-12-01T09:22:04.921Z,5704.00
2017-12-01T09:23:04.886Z,5616.00
2017-12-01T09:24:04.855Z,5864.00
2017-12-01T09:25:04.821Z,5976.00
2017-12-01T09:26:04.792Z,5676.00
2017-12-01T09:27:04.760Z,5104.00
2017-12-01T09:28:04.730Z,5224.00
2017-12-01T09:29:04.710Z,5332.00
2017-12-01T09:30:04.672Z,5496.00
2017-12-01T09:31:04.632Z,5708.00
2017-12-01T09:32:04.607Z,5724.00
2017-12-01T09:33:04.576Z,5992.00
2017-12-01T09:34:04.551Z,6516.00
2017-12-01T09:35:04.522Z,6608.00
2017-12-01T09:36:04.486Z,7184.00
2017-12-01T09:37:04.455Z,7228.00
2017-12-01T09:38:04.416Z,7172.00
2017-12-01T09:39:04.396Z,7216.00
2017-12-01T09:40:04.359Z,6976.00
2017-12-01T09:41:04.333Z,6960.00
2017-12-01T09:42:04.299Z,6792.00
2017-12-01T09:43:04.271Z,6676.00
2017-12-01T09:44:04.241Z,7080.00
2017-12-01T09:45:04.206Z,7740.00
2017-12-01T09:46:04.185Z,8176.00
2017-12-01T09:47:04.144Z,8192.00
2017-12-01T09:48:04.108Z,8108.00
2017-12-01T09:49:04.077Z,8532.00
2017-12-01T09:50:04.053Z,9448.00
2017-12-01T09:51:04.029Z,10208.00
2017-12-01T09:52:03.989Z,10392.00
2017-12-01T09:53:03.968Z,10644.00
2017-12-01T09:54:03.935Z,10768.00
2017-12-01T09:55:03.896Z,11820.00
2017-12-01T09:56:03.874Z,12160.00
2017-12-01T09:57:03.844Z,12444.00
2017-12-01T09:58:03.812Z,11868.00
2017-12-01T09:59:03.776Z,11364.00
2017-12-01T10:00:03.754Z,10380.00
2017-12-01T10:01:03.719Z,9376.00
2017-12-01T10:02:03.702Z,8744.00
2017-12-01T10:03:03.664Z,7628.00
2017-12-01T10:04:03.634Z,6892.00
2017-12-01T10:05:03.603Z,6356.00
2017-12-01T10:06:03.574Z,6620.00
2017-12-01T10:07:03.530Z,6628.00
2017-12-01T10:08:03.504Z,6512.00
2017-12-01T10:09:03.481Z,7540.00
2017-12-01T10:10:03.451Z,7884.00
2017-12-01T10:11:03.411Z,7744.00
2017-12-01T10:12:03.406Z,8072.00
2017-12-01T10:13:03.356Z,8500.00
2017-12-01T10:14:03.336Z,8432.00
2017-12-01T10:15:03.615Z,8616.00
2017-12-01T10:16:03.270Z,9260.00
2017-12-01T10:17:03.246Z,9840.00
2017-12-01T10:18:03.214Z,10064.00
2017-12-01T10:19:03.174Z,10752.00
2017-12-01T10:20:03.148Z,10528.00
2017-12-01T10:21:03.109Z,10560.00
2017-12-01T10:22:03.082Z,10796.00
2017-12-01T10:23:03.060Z,10740.00
2017-12-01T10:24:03.034Z,9476.00
2017-12-01T10:25:03.002Z,9048.00
2017-12-01T10:26:02.974Z,8580.00
2017-12-01T10:27:02.943Z,7648.00
2017-12-01T10:28:02.913Z,7016.00
2017-12-01T10:29:02.884Z,7096.00
2017-12-01T10:30:02.849Z,7804.00
2017-12-01T10:31:02.815Z,8144.00
2017-12-01T10:32:02.785Z,6980.00
2017-12-01T10:33:02.758Z,6988.00
2017-12-01T10:34:02.726Z,7640.00
2017-12-01T10:35:02.710Z,8512.00
2017-12-01T10:36:02.994Z,7724.00
2017-12-01T10:37:02.634Z,7820.00
2017-12-01T10:38:02.614Z,6252.00
2017-12-01T10:39:02.577Z,6288.00
2017-12-01T10:40:02.552Z,5836.00
2017-12-01T10:41:02.523Z,5676.00
2017-12-01T10:42:02.482Z,5812.00
2017-12-01T10:43:02.455Z,5076.00
2017-12-01T10:44:02.429Z,4744.00
2017-12-01T10:45:02.413Z,4528.00
2017-12-01T10:46:02.365Z,4360.00
2017-12-01T10:47:02.349Z,4728.00
2017-12-01T10:48:02.311Z,5440.00
2017-12-01T10:49:02.270Z,5528.00
2017-12-01T10:50:02.252Z,4892.00
2017-12-01T10:51:02.223Z,4508.00
2017-12-01T10:52:02.178Z,4472.00
2017-12-01T10:53:02.154Z,4828.00
2017-12-01T10:54:02.119Z,4788.00
2017-12-01T10:55:02.087Z,3968.00
2017-12-01T10:56:02.077Z,3388.00
2017-12-01T10:57:02.035Z,3252.00
2017-12-01T10:58:02.005Z,3556.00
2017-12-01T10:59:01.981Z,3864.00
2017-12-01T11:00:01.940Z,4432.00
2017-12-01T11:01:01.954Z,4984.00
2017-12-01T11:02:01.882Z,4976.00
2017-12-01T11:03:01.874Z,5228.00
2017-12-01T11:04:01.815Z,5780.00
2017-12-01T11:05:01.789Z,6404.00
2017-12-01T11:06:01.766Z,6804.00
2017-12-01T11:07:01.734Z,6972.00
2017-12-01T11:08:01.952Z,6784.00
2017-12-01T11:09:01.667Z,6840.00
2017-12-01T11:10:01.637Z,7216.00
2017-12-01T11:11:01.609Z,7004.00
2017-12-01T11:12:01.575Z,7316.00
2017-12-01T11:13:01.548Z,7848.00
2017-12-01T11:14:01.520Z,7484.00
2017-12-01T11:15:01.482Z,7436.00
2017-12-01T11:16:01.471Z,8104.00
2017-12-01T11:17:01.424Z,8788.00
2017-12-01T11:18:01.401Z,8276.00
2017-12-01T11:19:01.372Z,8124.00
2017-12-01T11:20:01.337Z,8544.00
2017-12-01T11:21:01.299Z,8032.00
2017-12-01T11:22:01.283Z,7152.00
2017-12-01T11:23:01.247Z,6920.00
2017-12-01T11:24:01.216Z,7160.00
2017-12-01T11:25:01.184Z,7236.00
2017-12-01T11:26:01.457Z,6976.00
2017-12-01T11:27:01.133Z,6644.00
2017-12-01T11:28:01.100Z,6992.00
2017-12-01T11:29:01.076Z,8276.00
2017-12-01T11:30:01.041Z,9692.00
2017-12-01T11:31:01.006Z,10736.00
2017-12-01T11:32:00.985Z,10808.00
2017-12-01T11:33:00.953Z,9472.00
2017-12-01T11:34:00.917Z,9508.00
2017-12-01T11:35:00.886Z,10888.00
2017-12-01T11:36:00.861Z,11472.00
2017-12-01T11:37:00.830Z,10916.00
2017-12-01T11:38:00.804Z,10708.00
2017-12-01T11:39:00.767Z,11844.00
2017-12-01T11:40:00.737Z,12452.00
2017-12-01T11:41:00.705Z,11172.00
2017-12-01T11:42:00.672Z,10208.00
2017-12-01T11:43:00.642Z,9920.00
2017-12-01T11:44:00.867Z,9820.00
2017-12-01T11:45:00.588Z,10192.00
2017-12-01T11:46:00.566Z,10160.00
2017-12-01T11:47:00.527Z,10140.00
2017-12-01T11:48:00.498Z,10560.00
2017-12-01T11:49:00.480Z,10840.00
2017-12-01T11:50:00.443Z,10728.00
2017-12-01T11:51:00.412Z,11460.00
2017-12-01T11:52:00.381Z,11244.00
2017-12-01T11:53:00.351Z,10300.00
2017-12-01T11:54:00.317Z,10392.00
2017-12-01T11:55:00.294Z,9644.00
2017-12-01T11:56:00.262Z,8172.00
2017-12-01T11:57:00.233Z,8120.00
2017-12-01T11:58:00.216Z,8356.00
2017-12-01T11:59:00.174Z,8200.00
2017-12-01T12:00:00.147Z,7744.00
2017-12-01T12:01:00.119Z,7264.00
2017-12-01T12:02:00.087Z,7484.00
2017-12-01T12:03:00.057Z,8352.00
2017-12-01T12:04:00.026Z,8520.00
2017-12-01T12:05:00.002Z,8588.00
2017-12-01T12:05:59.972Z,8624.00
2017-12-01T12:06:59.942Z,8352.00
2017-12-01T12:07:59.919Z,8024.00
2017-12-01T12:08:59.881Z,8512.00
2017-12-01T12:09:59.859Z,7088.00
2017-12-01T12:10:59.825Z,6252.00
2017-12-01T12:11:59.790Z,6584.00
2017-12-01T12:12:59.770Z,6452.00
2017-12-01T12:13:59.735Z,5424.00
2017-12-01T12:14:59.708Z,5400.00
2017-12-01T12:15:59.674Z,5264.00
2017-12-01T12:16:59.652Z,4592.00
2017-12-01T12:17:59.613Z,4192.00
2017-12-01T12:18:59.596Z,3936.00
2017-12-01T12:19:59.560Z,4164.00
2017-12-01T12:20:59.549Z,4308.00
2017-12-01T12:21:59.496Z,4104.00
2017-12-01T12:22:59.460Z,4380.00
2017-12-01T12:23:59.441Z,4660.00
2017-12-01T12:24:59.406Z,4924.00
2017-12-01T12:25:59.380Z,5352.00
2017-12-01T12:26:59.340Z,5796.00
2017-12-01T12:27:59.316Z,6908.00
2017-12-01T12:28:59.288Z,7048.00
2017-12-01T12:29:59.256Z,6276.00
2017-12-01T12:30:59.226Z,6136.00
2017-12-01T12:31:59.191Z,6236.00
2017-12-01T12:32:59.168Z,6072.00
2017-12-01T12:33:59.139Z,6080.00
2017-12-01T12:34:59.106Z,5336.00
2017-12-01T12:35:59.076Z,5088.00
2017-12-01T12:36:59.067Z,5124.00
2017-12-01T12:37:59.020Z,5048.00
2017-12-01T12:38:58.988Z,4768.00
2017-12-01T12:39:58.957Z,4496.00
2017-12-01T12:40:58.928Z,4288.00
2017-12-01T12:41:58.899Z,4536.00
2017-12-01T12:42:58.863Z,4928.00